sensor_id;sensor_type;location;lat;lon;timestamp;pressure;altitude;pressure_sealevel;temperature;humidity
31538;BME280;18147;51.952;6.146;2023-04-24T00:00:09;99827.59;;;10.77;100.00
31538;BME280;18147;51.952;6.146;2023-04-24T00:02:35;99819.34;;;10.80;100.00
31538;BME280;18147;51.952;6.146;2023-04-24T00:05:07;99830.75;;;10.71;100.00
31538;BME280;18147;51.952;6.146;2023-04-24T00:07:33;99826.13;;;10.84;100.00
31538;BME280;18147;51.952;6.146;2023-04-24T00:09:58;99827.25;;;10.59;100.00
31538;BME280;18147;51.952;6.146;2023-04-24T00:12:25;99840.09;;;10.66;100.00
31538;BME280;18147;51.952;6.146;2023-04-24T00:14:50;99836.09;;;10.60;100.00
31538;BME280;18147;51.952;6.146;2023-04-24T00:17:16;99836.31;;;10.68;100.00
31538;BME280;18147;51.952;6.146;2023-04-24T00:19:45;99840.19;;;10.64;100.00
31538;BME280;18147;51.952;6.146;2023-04-24T00:22:11;99834.97;;;10.74;100.00
31538;BME280;18147;51.952;6.146;2023-04-24T00:24:38;99835.34;;;10.58;100.00
31538;BME280;18147;51.952;6.146;2023-04-24T00:27:04;99839.25;;;10.65;100.00
31538;BME280;18147;51.952;6.146;2023-04-24T00:29:29;99844.91;;;10.83;100.00
31538;BME280;18147;51.952;6.146;2023-04-24T00:31:55;99839.81;;;10.69;100.00
31538;BME280;18147;51.952;6.146;2023-04-24T00:34:21;99845.16;;;10.69;100.00
31538;BME280;18147;51.952;6.146;2023-04-24T00:36:46;99842.13;;;10.73;100.00
31538;BME280;18147;51.952;6.146;2023-04-24T00:39:14;99841.53;;;10.70;100.00
31538;BME280;18147;51.952;6.146;2023-04-24T00:41:39;99841.78;;;10.55;100.00
31538;BME280;18147;51.952;6.146;2023-04-24T00:44:05;99838.66;;;10.50;100.00
31538;BME280;18147;51.952;6.146;2023-04-24T00:46:31;99852.69;;;10.63;100.00
31538;BME280;18147;51.952;6.146;2023-04-24T00:48:59;99847.13;;;10.55;100.00
31538;BME280;18147;51.952;6.146;2023-04-24T00:51:24;99842.38;;;10.48;100.00
31538;BME280;18147;51.952;6.146;2023-04-24T00:53:50;99839.97;;;10.67;100.00
31538;BME280;18147;51.952;6.146;2023-04-24T00:56:16;99845.06;;;10.70;100.00
31538;BME280;18147;51.952;6.146;2023-04-24T00:58:42;99839.59;;;10.72;100.00
31538;BME280;18147;51.952;6.146;2023-04-24T01:01:09;99832.56;;;10.71;100.00
31538;BME280;18147;51.952;6.146;2023-04-24T01:03:37;99831.25;;;10.65;100.00
31538;BME280;18147;51.952;6.146;2023-04-24T01:06:04;99832.81;;;10.68;100.00
31538;BME280;18147;51.952;6.146;2023-04-24T01:08:30;99837.28;;;10.78;100.00
31538;BME280;18147;51.952;6.146;2023-04-24T01:10:57;99839.97;;;10.67;100.00
31538;BME280;18147;51.952;6.146;2023-04-24T01:13:23;99831.22;;;10.76;100.00
31538;BME280;18147;51.952;6.146;2023-04-24T01:15:49;99848.56;;;10.71;100.00
31538;BME280;18147;51.952;6.146;2023-04-24T01:18:15;99839.81;;;10.69;100.00
31538;BME280;18147;51.952;6.146;2023-04-24T01:20:42;99842.97;;;10.74;100.00
31538;BME280;18147;51.952;6.146;2023-04-24T01:23:09;99839.00;;;10.57;100.00
31538;BME280;18147;51.952;6.146;2023-04-24T01:25:36;99839.59;;;10.60;100.00
31538;BME280;18147;51.952;6.146;2023-04-24T01:28:03;99848.66;;;10.69;100.00
31538;BME280;18147;51.952;6.146;2023-04-24T01:30:31;99845.91;;;10.48;100.00
31538;BME280;18147;51.952;6.146;2023-04-24T01:32:58;99839.84;;;10.57;100.00
31538;BME280;18147;51.952;6.146;2023-04-24T01:35:24;99842.75;;;10.66;100.00
31538;BME280;18147;51.952;6.146;2023-04-24T01:37:50;99833.31;;;10.50;100.00
31538;BME280;18147;51.952;6.146;2023-04-24T01:40:16;99837.91;;;10.48;100.00
31538;BME280;18147;51.952;6.146;2023-04-24T01:42:41;99838.00;;;10.69;100.00
31538;BME280;18147;51.952;6.146;2023-04-24T01:45:10;99830.63;;;10.61;100.00
31538;BME280;18147;51.952;6.146;2023-04-24T01:47:36;99832.94;;;10.55;100.00
31538;BME280;18147;51.952;6.146;2023-04-24T01:50:02;99843.84;;;10.63;100.00
31538;BME280;18147;51.952;6.146;2023-04-24T01:52:28;99834.78;;;10.54;100.00
31538;BME280;18147;51.952;6.146;2023-04-24T01:54:59;99837.06;;;10.48;100.00
31538;BME280;18147;51.952;6.146;2023-04-24T01:57:25;99839.50;;;10.51;100.00
31538;BME280;18147;51.952;6.146;2023-04-24T01:59:51;99836.47;;;10.44;100.00
31538;BME280;18147;51.952;6.146;2023-04-24T02:02:16;99837.91;;;10.48;100.00
31538;BME280;18147;51.952;6.146;2023-04-24T02:04:42;99841.53;;;10.47;100.00
31538;BME280;18147;51.952;6.146;2023-04-24T02:07:08;99834.03;;;10.41;100.00
31538;BME280;18147;51.952;6.146;2023-04-24T02:09:33;99842.16;;;10.40;100.00
31538;BME280;18147;51.952;6.146;2023-04-24T02:11:59;99848.44;;;10.27;100.00
31538;BME280;18147;51.952;6.146;2023-04-24T02:14:25;99837.41;;;10.43;100.00
31538;BME280;18147;51.952;6.146;2023-04-24T02:16:51;99843.72;;;10.53;100.00
31538;BME280;18147;51.952;6.146;2023-04-24T02:19:16;99846.38;;;10.42;100.00
31538;BME280;18147;51.952;6.146;2023-04-24T02:21:42;99844.56;;;10.43;100.00
31538;BME280;18147;51.952;6.146;2023-04-24T02:24:08;99847.22;;;10.43;100.00
31538;BME280;18147;51.952;6.146;2023-04-24T02:26:34;99843.72;;;10.42;100.00
31538;BME280;18147;51.952;6.146;2023-04-24T02:28:59;99845.78;;;10.50;100.00
31538;BME280;18147;51.952;6.146;2023-04-24T02:31:25;99846.75;;;10.37;100.00
31538;BME280;18147;51.952;6.146;2023-04-24T02:33:51;99846.03;;;10.35;100.00
31538;BME280;18147;51.952;6.146;2023-04-24T02:36:16;99848.19;;;10.53;100.00
31538;BME280;18147;51.952;6.146;2023-04-24T02:38:42;99851.72;;;10.53;100.00
31538;BME280;18147;51.952;6.146;2023-04-24T02:41:07;99842.16;;;10.40;100.00
31538;BME280;18147;51.952;6.146;2023-04-24T02:43:33;99854.31;;;10.08;100.00
31538;BME280;18147;51.952;6.146;2023-04-24T02:45:59;99855.84;;;10.35;100.00
31538;BME280;18147;51.952;6.146;2023-04-24T02:48:24;99853.75;;;10.27;100.00
31538;BME280;18147;51.952;6.146;2023-04-24T02:50:50;99847.34;;;10.41;100.00
31538;BME280;18147;51.952;6.146;2023-04-24T02:53:16;99850.56;;;10.22;100.00
31538;BME280;18147;51.952;6.146;2023-04-24T02:55:42;99851.59;;;10.32;100.00
31538;BME280;18147;51.952;6.146;2023-04-24T02:58:07;99847.59;;;10.27;100.00
31538;BME280;18147;51.952;6.146;2023-04-24T03:00:33;99852.91;;;10.38;100.00
31538;BME280;18147;51.952;6.146;2023-04-24T03:02:59;99844.56;;;10.43;100.00
31538;BME280;18147;51.952;6.146;2023-04-24T03:05:25;99851.47;;;10.34;100.00
31538;BME280;18147;51.952;6.146;2023-04-24T03:07:50;99855.94;;;10.33;100.00
31538;BME280;18147;51.952;6.146;2023-04-24T03:10:18;99856.34;;;10.40;100.00
31538;BME280;18147;51.952;6.146;2023-04-24T03:12:43;99861.22;;;10.11;100.00
31538;BME280;18147;51.952;6.146;2023-04-24T03:15:09;99864.56;;;10.26;100.00
31538;BME280;18147;51.952;6.146;2023-04-24T03:17:36;99858.16;;;10.40;100.00
31538;BME280;18147;51.952;6.146;2023-04-24T03:20:02;99863.72;;;10.36;100.00
31538;BME280;18147;51.952;6.146;2023-04-24T03:22:30;99869.91;;;10.02;100.00
31538;BME280;18147;51.952;6.146;2023-04-24T03:24:58;99866.06;;;10.17;100.00
31538;BME280;18147;51.952;6.146;2023-04-24T03:27:24;99864.25;;;10.06;100.00
31538;BME280;18147;51.952;6.146;2023-04-24T03:29:55;99873.34;;;10.15;100.00
31538;BME280;18147;51.952;6.146;2023-04-24T03:32:25;99876.09;;;10.13;100.00
31538;BME280;18147;51.952;6.146;2023-04-24T03:34:51;99873.44;;;10.02;100.00
31538;BME280;18147;51.952;6.146;2023-04-24T03:37:17;99877.56;;;10.06;100.00
31538;BME280;18147;51.952;6.146;2023-04-24T03:39:48;99879.50;;;10.04;100.00
31538;BME280;18147;51.952;6.146;2023-04-24T03:42:16;99876.09;;;10.13;100.00
31538;BME280;18147;51.952;6.146;2023-04-24T03:44:50;99874.19;;;10.04;100.00
31538;BME280;18147;51.952;6.146;2023-04-24T03:47:16;99872.00;;;10.09;100.00
31538;BME280;18147;51.952;6.146;2023-04-24T03:49:42;99879.88;;;10.11;100.00
31538;BME280;18147;51.952;6.146;2023-04-24T03:52:09;99874.63;;;9.98;100.00
31538;BME280;18147;51.952;6.146;2023-04-24T03:54:34;99894.25;;;10.08;100.00
31538;BME280;18147;51.952;6.146;2023-04-24T03:57:00;99879.56;;;9.92;100.00
31538;BME280;18147;51.952;6.146;2023-04-24T03:59:28;99880.41;;;9.92;100.00
31538;BME280;18147;51.952;6.146;2023-04-24T04:02:15;99882.00;;;9.95;100.00
31538;BME280;18147;51.952;6.146;2023-04-24T04:04:40;99880.22;;;10.06;100.00
31538;BME280;18147;51.952;6.146;2023-04-24T04:07:06;99877.28;;;9.98;100.00
31538;BME280;18147;51.952;6.146;2023-04-24T04:09:32;99887.94;;;9.98;100.00
31538;BME280;18147;51.952;6.146;2023-04-24T04:11:58;99889.03;;;9.96;100.00
31538;BME280;18147;51.952;6.146;2023-04-24T04:14:24;99894.00;;;9.89;100.00
31538;BME280;18147;51.952;6.146;2023-04-24T04:16:49;99894.09;;;9.88;100.00
31538;BME280;18147;51.952;6.146;2023-04-24T04:19:15;99907.19;;;9.91;100.00
31538;BME280;18147;51.952;6.146;2023-04-24T04:21:40;99906.09;;;9.93;100.00
31538;BME280;18147;51.952;6.146;2023-04-24T04:24:13;99905.22;;;9.93;100.00
31538;BME280;18147;51.952;6.146;2023-04-24T04:26:43;99900.38;;;9.86;100.00
31538;BME280;18147;51.952;6.146;2023-04-24T04:29:18;99910.56;;;9.93;100.00
31538;BME280;18147;51.952;6.146;2023-04-24T04:31:46;99904.00;;;9.85;100.00
31538;BME280;18147;51.952;6.146;2023-04-24T04:34:12;99908.59;;;9.83;100.00
31538;BME280;18147;51.952;6.146;2023-04-24T04:36:41;99910.03;;;9.76;100.00
31538;BME280;18147;51.952;6.146;2023-04-24T04:39:19;99911.88;;;9.87;100.00
31538;BME280;18147;51.952;6.146;2023-04-24T04:42:06;99913.53;;;9.77;100.00
31538;BME280;18147;51.952;6.146;2023-04-24T04:44:39;99908.84;;;9.80;100.00
31538;BME280;18147;51.952;6.146;2023-04-24T04:47:06;99921.81;;;9.85;100.00
31538;BME280;18147;51.952;6.146;2023-04-24T04:49:35;99922.03;;;9.82;100.00
31538;BME280;18147;51.952;6.146;2023-04-24T04:52:02;99914.34;;;10.01;100.00
31538;BME280;18147;51.952;6.146;2023-04-24T04:54:28;99912.88;;;9.97;100.00
31538;BME280;18147;51.952;6.146;2023-04-24T04:56:55;99902.84;;;10.01;100.00
31538;BME280;18147;51.952;6.146;2023-04-24T04:59:22;99902.09;;;9.99;100.00
31538;BME280;18147;51.952;6.146;2023-04-24T05:01:52;99907.22;;;10.02;100.00
31538;BME280;18147;51.952;6.146;2023-04-24T05:04:18;99903.84;;;10.11;100.00
31538;BME280;18147;51.952;6.146;2023-04-24T05:06:43;99909.00;;;9.90;100.00
31538;BME280;18147;51.952;6.146;2023-04-24T05:09:09;99905.84;;;9.85;100.00
31538;BME280;18147;51.952;6.146;2023-04-24T05:11:49;99912.88;;;9.97;100.00
31538;BME280;18147;51.952;6.146;2023-04-24T05:14:15;99905.34;;;9.91;100.00
31538;BME280;18147;51.952;6.146;2023-04-24T05:16:43;99908.03;;;9.91;100.00
31538;BME280;18147;51.952;6.146;2023-04-24T05:19:09;99915.31;;;10.00;100.00
31538;BME280;18147;51.952;6.146;2023-04-24T05:21:42;99909.75;;;10.03;100.00
31538;BME280;18147;51.952;6.146;2023-04-24T05:24:09;99916.84;;;9.92;100.00
31538;BME280;18147;51.952;6.146;2023-04-24T05:27:04;99916.38;;;9.98;100.00
31538;BME280;18147;51.952;6.146;2023-04-24T05:29:35;99924.47;;;9.85;100.00
31538;BME280;18147;51.952;6.146;2023-04-24T05:32:02;99926.38;;;9.83;100.00
31538;BME280;18147;51.952;6.146;2023-04-24T05:34:29;99930.63;;;9.85;100.00
31538;BME280;18147;51.952;6.146;2023-04-24T05:36:56;99921.34;;;9.91;100.00
31538;BME280;18147;51.952;6.146;2023-04-24T05:39:21;99925.78;;;9.79;100.00
31538;BME280;18147;51.952;6.146;2023-04-24T05:41:47;99923.84;;;9.57;100.00
31538;BME280;18147;51.952;6.146;2023-04-24T05:44:12;99933.31;;;9.85;100.00
31538;BME280;18147;51.952;6.146;2023-04-24T05:46:38;99938.84;;;9.82;100.00
31538;BME280;18147;51.952;6.146;2023-04-24T05:49:04;99938.00;;;9.82;100.00
31538;BME280;18147;51.952;6.146;2023-04-24T05:51:31;99941.00;;;9.77;100.00
31538;BME280;18147;51.952;6.146;2023-04-24T05:53:58;99944.06;;;9.84;100.00
31538;BME280;18147;51.952;6.146;2023-04-24T05:56:24;99938.69;;;9.73;100.00
31538;BME280;18147;51.952;6.146;2023-04-24T05:58:50;99942.69;;;9.78;100.00
31538;BME280;18147;51.952;6.146;2023-04-24T06:01:16;99952.66;;;9.64;100.00
31538;BME280;18147;51.952;6.146;2023-04-24T06:03:45;99958.97;;;9.63;100.00
31538;BME280;18147;51.952;6.146;2023-04-24T06:06:10;99959.28;;;9.58;100.00
31538;BME280;18147;51.952;6.146;2023-04-24T06:08:36;99961.91;;;9.71;100.00
31538;BME280;18147;51.952;6.146;2023-04-24T06:11:02;99966.09;;;9.62;100.00
31538;BME280;18147;51.952;6.146;2023-04-24T06:13:28;99974.81;;;9.88;100.00
31538;BME280;18147;51.952;6.146;2023-04-24T06:16:19;99972.28;;;9.86;100.00
31538;BME280;18147;51.952;6.146;2023-04-24T06:18:51;99974.88;;;9.99;100.00
31538;BME280;18147;51.952;6.146;2023-04-24T06:21:18;99982.56;;;10.15;100.00
31538;BME280;18147;51.952;6.146;2023-04-24T06:23:44;99977.19;;;10.28;100.00
31538;BME280;18147;51.952;6.146;2023-04-24T06:26:11;99981.47;;;10.42;100.00
31538;BME280;18147;51.952;6.146;2023-04-24T06:28:37;99980.63;;;10.41;100.00
31538;BME280;18147;51.952;6.146;2023-04-24T06:31:03;99979.16;;;10.48;100.00
31538;BME280;18147;51.952;6.146;2023-04-24T06:33:30;99982.09;;;10.56;100.00
31538;BME280;18147;51.952;6.146;2023-04-24T06:35:55;99991.91;;;10.45;100.00
31538;BME280;18147;51.952;6.146;2023-04-24T06:38:21;99983.94;;;10.67;100.00
31538;BME280;18147;51.952;6.146;2023-04-24T06:40:47;99986.94;;;10.51;100.00
31538;BME280;18147;51.952;6.146;2023-04-24T06:43:12;99994.28;;;10.36;100.00
31538;BME280;18147;51.952;6.146;2023-04-24T06:45:38;99996.59;;;10.30;100.00
31538;BME280;18147;51.952;6.146;2023-04-24T06:48:05;100000.00;;;10.43;100.00
31538;BME280;18147;51.952;6.146;2023-04-24T06:50:30;99998.03;;;10.34;100.00
31538;BME280;18147;51.952;6.146;2023-04-24T06:52:56;100010.28;;;10.36;100.00
31538;BME280;18147;51.952;6.146;2023-04-24T06:55:21;100007.28;;;10.41;100.00
31538;BME280;18147;51.952;6.146;2023-04-24T06:57:47;100007.16;;;10.54;100.00
31538;BME280;18147;51.952;6.146;2023-04-24T07:00:13;100007.63;;;10.36;100.00
31538;BME280;18147;51.952;6.146;2023-04-24T07:02:40;100010.84;;;10.29;100.00
31538;BME280;18147;51.952;6.146;2023-04-24T07:05:05;100007.13;;;10.31;100.00
31538;BME280;18147;51.952;6.146;2023-04-24T07:07:32;100014.75;;;10.12;100.00
31538;BME280;18147;51.952;6.146;2023-04-24T07:09:57;100014.72;;;10.25;100.00
31538;BME280;18147;51.952;6.146;2023-04-24T07:12:23;100017.44;;;10.36;100.00
31538;BME280;18147;51.952;6.146;2023-04-24T07:14:50;100015.25;;;10.41;100.00
31538;BME280;18147;51.952;6.146;2023-04-24T07:17:16;100025.22;;;10.50;100.00
31538;BME280;18147;51.952;6.146;2023-04-24T07:19:42;100023.63;;;10.48;100.00
31538;BME280;18147;51.952;6.146;2023-04-24T07:22:08;100036.47;;;10.54;100.00
31538;BME280;18147;51.952;6.146;2023-04-24T07:24:33;100030.84;;;10.70;100.00
31538;BME280;18147;51.952;6.146;2023-04-24T07:26:59;100031.09;;;10.78;100.00
31538;BME280;18147;51.952;6.146;2023-04-24T07:29:26;100033.06;;;10.98;100.00
31538;BME280;18147;51.952;6.146;2023-04-24T07:31:52;100043.63;;;11.22;100.00
31538;BME280;18147;51.952;6.146;2023-04-24T07:34:19;100038.75;;;10.94;100.00
31538;BME280;18147;51.952;6.146;2023-04-24T07:36:45;100056.78;;;10.79;100.00
31538;BME280;18147;51.952;6.146;2023-04-24T07:39:11;100060.91;;;10.72;100.00
31538;BME280;18147;51.952;6.146;2023-04-24T07:41:37;100067.16;;;10.95;100.00
31538;BME280;18147;51.952;6.146;2023-04-24T07:44:02;100068.91;;;10.72;100.00
31538;BME280;18147;51.952;6.146;2023-04-24T07:46:29;100073.38;;;10.60;100.00
31538;BME280;18147;51.952;6.146;2023-04-24T07:48:55;100084.44;;;10.43;100.00
31538;BME280;18147;51.952;6.146;2023-04-24T07:51:21;100091.25;;;10.47;100.00
31538;BME280;18147;51.952;6.146;2023-04-24T07:53:47;100095.56;;;10.36;100.00
31538;BME280;18147;51.952;6.146;2023-04-24T07:56:12;100094.72;;;10.36;100.00
31538;BME280;18147;51.952;6.146;2023-04-24T07:58:38;100101.03;;;10.22;100.00
31538;BME280;18147;51.952;6.146;2023-04-24T08:01:04;100112.59;;;10.10;100.00
31538;BME280;18147;51.952;6.146;2023-04-24T08:03:29;100107.88;;;10.13;100.00
31538;BME280;18147;51.952;6.146;2023-04-24T08:05:55;100113.72;;;10.19;100.00
31538;BME280;18147;51.952;6.146;2023-04-24T08:08:21;100125.72;;;10.00;100.00
31538;BME280;18147;51.952;6.146;2023-04-24T08:10:48;100134.00;;;9.72;100.00
31538;BME280;18147;51.952;6.146;2023-04-24T08:13:13;100142.19;;;9.81;100.00
31538;BME280;18147;51.952;6.146;2023-04-24T08:15:39;100151.44;;;9.76;100.00
31538;BME280;18147;51.952;6.146;2023-04-24T08:18:05;100160.16;;;9.78;100.00
31538;BME280;18147;51.952;6.146;2023-04-24T08:20:30;100174.56;;;9.63;100.00
31538;BME280;18147;51.952;6.146;2023-04-24T08:22:56;100173.28;;;9.43;100.00
31538;BME280;18147;51.952;6.146;2023-04-24T08:25:21;100190.41;;;9.39;100.00
31538;BME280;18147;51.952;6.146;2023-04-24T08:27:48;100197.13;;;9.31;100.00
31538;BME280;18147;51.952;6.146;2023-04-24T08:30:14;100205.44;;;9.27;100.00
31538;BME280;18147;51.952;6.146;2023-04-24T08:32:39;100225.28;;;9.08;100.00
31538;BME280;18147;51.952;6.146;2023-04-24T08:35:06;100229.44;;;9.13;100.00
31538;BME280;18147;51.952;6.146;2023-04-24T08:37:34;100227.00;;;9.10;100.00
31538;BME280;18147;51.952;6.146;2023-04-24T08:39:59;100234.94;;;8.97;100.00
31538;BME280;18147;51.952;6.146;2023-04-24T08:42:28;100247.03;;;8.88;100.00
31538;BME280;18147;51.952;6.146;2023-04-24T08:44:54;100246.97;;;9.02;100.00
31538;BME280;18147;51.952;6.146;2023-04-24T08:47:20;100256.19;;;9.24;100.00
31538;BME280;18147;51.952;6.146;2023-04-24T08:49:48;100260.97;;;9.19;100.00
31538;BME280;18147;51.952;6.146;2023-04-24T08:52:15;100265.66;;;9.28;100.00
31538;BME280;18147;51.952;6.146;2023-04-24T08:54:42;100271.09;;;9.26;100.00
31538;BME280;18147;51.952;6.146;2023-04-24T08:57:11;100273.63;;;9.28;100.00
31538;BME280;18147;51.952;6.146;2023-04-24T08:59:39;100283.00;;;9.21;100.00
31538;BME280;18147;51.952;6.146;2023-04-24T09:02:06;100282.44;;;9.16;100.00
31538;BME280;18147;51.952;6.146;2023-04-24T09:04:36;100289.59;;;9.15;100.00
31538;BME280;18147;51.952;6.146;2023-04-24T09:07:03;100298.78;;;9.24;100.00
31538;BME280;18147;51.952;6.146;2023-04-24T09:09:30;100306.81;;;9.22;100.00
31538;BME280;18147;51.952;6.146;2023-04-24T09:11:56;100302.91;;;9.28;100.00
31538;BME280;18147;51.952;6.146;2023-04-24T09:14:23;100311.78;;;9.41;100.00
31538;BME280;18147;51.952;6.146;2023-04-24T09:16:49;100318.25;;;9.24;100.00
31538;BME280;18147;51.952;6.146;2023-04-24T09:19:15;100320.50;;;9.43;100.00
31538;BME280;18147;51.952;6.146;2023-04-24T09:21:45;100329.25;;;9.45;100.00
31538;BME280;18147;51.952;6.146;2023-04-24T09:24:20;100338.22;;;9.57;100.00
31538;BME280;18147;51.952;6.146;2023-04-24T09:26:49;100338.81;;;9.48;100.00
31538;BME280;18147;51.952;6.146;2023-04-24T09:29:18;100346.19;;;9.44;100.00
31538;BME280;18147;51.952;6.146;2023-04-24T09:31:45;100351.81;;;9.40;100.00
31538;BME280;18147;51.952;6.146;2023-04-24T09:34:11;100350.47;;;9.20;100.00
31538;BME280;18147;51.952;6.146;2023-04-24T09:36:39;100361.53;;;9.26;100.00
31538;BME280;18147;51.952;6.146;2023-04-24T09:39:16;100377.47;;;9.14;100.00
31538;BME280;18147;51.952;6.146;2023-04-24T09:41:53;100372.44;;;9.09;100.00
31538;BME280;18147;51.952;6.146;2023-04-24T09:44:22;100376.84;;;9.23;100.00
31538;BME280;18147;51.952;6.146;2023-04-24T09:46:53;100386.34;;;9.27;100.00
31538;BME280;18147;51.952;6.146;2023-04-24T09:49:27;100384.38;;;9.43;100.00
31538;BME280;18147;51.952;6.146;2023-04-24T09:52:11;100388.53;;;9.47;100.00
31538;BME280;18147;51.952;6.146;2023-04-24T09:54:38;100398.88;;;9.52;100.00
31538;BME280;18147;51.952;6.146;2023-04-24T09:57:04;100391.50;;;9.70;100.00
31538;BME280;18147;51.952;6.146;2023-04-24T09:59:30;100396.59;;;9.73;100.00
31538;BME280;18147;51.952;6.146;2023-04-24T10:01:56;100392.72;;;9.91;100.00
31538;BME280;18147;51.952;6.146;2023-04-24T10:04:25;100393.66;;;9.90;100.00
31538;BME280;18147;51.952;6.146;2023-04-24T10:06:53;100388.41;;;10.41;100.00
31538;BME280;18147;51.952;6.146;2023-04-24T10:09:21;100401.63;;;10.43;100.00
31538;BME280;18147;51.952;6.146;2023-04-24T10:11:49;100402.34;;;10.19;100.00
31538;BME280;18147;51.952;6.146;2023-04-24T10:14:21;100414.94;;;10.55;100.00
31538;BME280;18147;51.952;6.146;2023-04-24T10:16:47;100414.41;;;10.76;100.00
31538;BME280;18147;51.952;6.146;2023-04-24T10:19:16;100413.69;;;10.98;100.00
31538;BME280;18147;51.952;6.146;2023-04-24T10:21:44;100422.47;;;11.24;100.00
31538;BME280;18147;51.952;6.146;2023-04-24T10:24:17;100409.78;;;11.27;100.00
31538;BME280;18147;51.952;6.146;2023-04-24T10:26:45;100408.47;;;11.81;100.00
31538;BME280;18147;51.952;6.146;2023-04-24T10:29:17;100421.38;;;11.87;100.00
31538;BME280;18147;51.952;6.146;2023-04-24T10:31:43;100418.22;;;11.69;100.00
31538;BME280;18147;51.952;6.146;2023-04-24T10:34:15;100419.56;;;11.87;100.00
31538;BME280;18147;51.952;6.146;2023-04-24T10:36:51;100424.72;;;12.02;100.00
31538;BME280;18147;51.952;6.146;2023-04-24T10:39:17;100429.41;;;12.44;100.00
31538;BME280;18147;51.952;6.146;2023-04-24T10:41:43;100430.41;;;12.55;100.00
31538;BME280;18147;51.952;6.146;2023-04-24T10:44:14;100432.25;;;12.65;100.00
31538;BME280;18147;51.952;6.146;2023-04-24T10:46:45;100420.94;;;12.62;100.00
31538;BME280;18147;51.952;6.146;2023-04-24T10:49:11;100439.69;;;12.95;100.00
31538;BME280;18147;51.952;6.146;2023-04-24T10:51:53;100439.03;;;12.58;98.09
31538;BME280;18147;51.952;6.146;2023-04-24T10:54:42;100439.03;;;12.36;100.00
31538;BME280;18147;51.952;6.146;2023-04-24T11:00:10;100446.38;;;12.10;100.00
31538;BME280;18147;51.952;6.146;2023-04-24T11:02:39;100450.09;;;11.96;100.00
31538;BME280;18147;51.952;6.146;2023-04-24T11:05:06;100468.44;;;11.77;96.06
31538;BME280;18147;51.952;6.146;2023-04-24T11:10:44;100457.69;;;11.29;96.37
31538;BME280;18147;51.952;6.146;2023-04-24T11:13:10;100460.25;;;11.67;97.42
31538;BME280;18147;51.952;6.146;2023-04-24T11:15:41;100478.75;;;11.57;98.12
31538;BME280;18147;51.952;6.146;2023-04-24T11:18:13;100473.41;;;11.57;95.78
31538;BME280;18147;51.952;6.146;2023-04-24T11:20:42;100471.81;;;11.79;96.04
31538;BME280;18147;51.952;6.146;2023-04-24T11:23:08;100478.59;;;12.19;97.02
31538;BME280;18147;51.952;6.146;2023-04-24T11:25:35;100481.88;;;12.23;91.86
31538;BME280;18147;51.952;6.146;2023-04-24T11:28:05;100493.03;;;12.52;92.24
31538;BME280;18147;51.952;6.146;2023-04-24T11:30:32;100486.31;;;12.00;92.64
31538;BME280;18147;51.952;6.146;2023-04-24T11:33:02;100489.78;;;11.53;93.38
31538;BME280;18147;51.952;6.146;2023-04-24T11:35:28;100494.41;;;11.38;96.40
31538;BME280;18147;51.952;6.146;2023-04-24T11:37:55;100501.94;;;11.20;99.48
31538;BME280;18147;51.952;6.146;2023-04-24T11:40:22;100510.75;;;11.46;97.97
31538;BME280;18147;51.952;6.146;2023-04-24T11:42:49;100518.59;;;12.21;98.92
31538;BME280;18147;51.952;6.146;2023-04-24T11:45:26;100508.22;;;12.52;94.35
31538;BME280;18147;51.952;6.146;2023-04-24T11:47:54;100513.16;;;12.80;89.49
31538;BME280;18147;51.952;6.146;2023-04-24T11:50:21;100513.25;;;12.79;86.75
31538;BME280;18147;51.952;6.146;2023-04-24T11:52:49;100520.78;;;12.74;88.66
31538;BME280;18147;51.952;6.146;2023-04-24T11:57:43;100524.84;;;12.44;88.70
31538;BME280;18147;51.952;6.146;2023-04-24T12:00:16;100533.66;;;12.68;87.20
31538;BME280;18147;51.952;6.146;2023-04-24T12:02:42;100530.13;;;12.57;87.38
31538;BME280;18147;51.952;6.146;2023-04-24T12:05:08;100532.44;;;12.61;85.27
31538;BME280;18147;51.952;6.146;2023-04-24T12:07:41;100541.63;;;13.04;87.85
31538;BME280;18147;51.952;6.146;2023-04-24T12:10:10;100538.63;;;12.15;91.38
31538;BME280;18147;51.952;6.146;2023-04-24T12:12:36;100542.16;;;12.51;88.77
31538;BME280;18147;51.952;6.146;2023-04-24T12:15:06;100545.38;;;12.08;91.84
31538;BME280;18147;51.952;6.146;2023-04-24T12:17:33;100552.03;;;12.27;90.86
31538;BME280;18147;51.952;6.146;2023-04-24T12:20:01;100560.97;;;11.90;91.83
31538;BME280;18147;51.952;6.146;2023-04-24T12:22:28;100563.22;;;11.71;95.18
31538;BME280;18147;51.952;6.146;2023-04-24T12:25:01;100570.19;;;11.61;95.68
31538;BME280;18147;51.952;6.146;2023-04-24T12:27:31;100585.41;;;11.35;100.00
31538;BME280;18147;51.952;6.146;2023-04-24T12:30:04;100596.06;;;10.71;100.00
31538;BME280;18147;51.952;6.146;2023-04-24T12:32:30;100606.19;;;10.66;100.00
31538;BME280;18147;51.952;6.146;2023-04-24T12:34:57;100605.25;;;10.93;100.00
31538;BME280;18147;51.952;6.146;2023-04-24T12:37:26;100605.91;;;11.09;100.00
31538;BME280;18147;51.952;6.146;2023-04-24T12:40:06;100598.41;;;11.65;100.00
31538;BME280;18147;51.952;6.146;2023-04-24T12:42:33;100590.59;;;12.35;100.00
31538;BME280;18147;51.952;6.146;2023-04-24T12:45:03;100588.34;;;12.29;100.00
31538;BME280;18147;51.952;6.146;2023-04-24T12:47:30;100591.69;;;12.79;100.00
31538;BME280;18147;51.952;6.146;2023-04-24T12:49:55;100600.00;;;12.87;96.71
31538;BME280;18147;51.952;6.146;2023-04-24T12:52:22;100600.16;;;12.97;92.02
31538;BME280;18147;51.952;6.146;2023-04-24T12:54:49;100596.16;;;13.14;86.89
31538;BME280;18147;51.952;6.146;2023-04-24T12:57:17;100604.69;;;13.19;89.55
31538;BME280;18147;51.952;6.146;2023-04-24T12:59:43;100611.47;;;13.01;88.26